sensor_id;sensor_type;location;lat;lon;timestamp;P1;durP1;ratioP1;P2;durP2;ratioP2
37299;SDS011;23184;51.902;12.836;2023-06-22T00:01:52;11.48;;;10.20;;
37299;SDS011;23184;51.902;12.836;2023-06-22T00:04:17;13.40;;;10.80;;
37299;SDS011;23184;51.902;12.836;2023-06-22T00:06:43;12.88;;;10.00;;
37299;SDS011;23184;51.902;12.836;2023-06-22T00:09:08;12.27;;;10.68;;
37299;SDS011;23184;51.902;12.836;2023-06-22T00:11:35;12.90;;;11.05;;
37299;SDS011;23184;51.902;12.836;2023-06-22T00:14:01;12.88;;;11.20;;
37299;SDS011;23184;51.902;12.836;2023-06-22T00:16:27;13.32;;;11.15;;
37299;SDS011;23184;51.902;12.836;2023-06-22T00:18:52;12.00;;;10.40;;
37299;SDS011;23184;51.902;12.836;2023-06-22T00:21:18;14.57;;;11.07;;
37299;SDS011;23184;51.902;12.836;2023-06-22T00:23:45;14.80;;;11.40;;
37299;SDS011;23184;51.902;12.836;2023-06-22T00:26:11;17.50;;;11.77;;
37299;SDS011;23184;51.902;12.836;2023-06-22T00:28:37;14.05;;;11.70;;
37299;SDS011;23184;51.902;12.836;2023-06-22T00:31:02;17.58;;;12.25;;
37299;SDS011;23184;51.902;12.836;2023-06-22T00:33:28;12.63;;;10.00;;
37299;SDS011;23184;51.902;12.836;2023-06-22T00:35:53;14.52;;;11.10;;
37299;SDS011;23184;51.902;12.836;2023-06-22T00:38:19;14.15;;;10.80;;
37299;SDS011;23184;51.902;12.836;2023-06-22T00:40:45;12.75;;;11.30;;
37299;SDS011;23184;51.902;12.836;2023-06-22T00:43:11;13.65;;;10.68;;
37299;SDS011;23184;51.902;12.836;2023-06-22T00:45:38;12.43;;;11.00;;
37299;SDS011;23184;51.902;12.836;2023-06-22T00:48:03;14.00;;;10.90;;
37299;SDS011;23184;51.902;12.836;2023-06-22T00:50:32;14.38;;;12.68;;
37299;SDS011;23184;51.902;12.836;2023-06-22T00:52:59;11.80;;;10.60;;
37299;SDS011;23184;51.902;12.836;2023-06-22T00:55:32;13.32;;;11.05;;
37299;SDS011;23184;51.902;12.836;2023-06-22T00:58:02;13.77;;;11.20;;
37299;SDS011;23184;51.902;12.836;2023-06-22T01:00:35;12.20;;;10.82;;
37299;SDS011;23184;51.902;12.836;2023-06-22T01:03:01;16.38;;;11.68;;
37299;SDS011;23184;51.902;12.836;2023-06-22T01:05:27;12.43;;;11.13;;
37299;SDS011;23184;51.902;12.836;2023-06-22T01:07:58;14.75;;;11.80;;
37299;SDS011;23184;51.902;12.836;2023-06-22T01:10:34;16.13;;;11.05;;
37299;SDS011;23184;51.902;12.836;2023-06-22T01:16:03;15.18;;;13.45;;
37299;SDS011;23184;51.902;12.836;2023-06-22T01:18:49;14.50;;;12.48;;
37299;SDS011;23184;51.902;12.836;2023-06-22T01:21:17;13.82;;;12.40;;
37299;SDS011;23184;51.902;12.836;2023-06-22T01:23:58;16.70;;;13.50;;
37299;SDS011;23184;51.902;12.836;2023-06-22T01:26:43;15.52;;;13.93;;
37299;SDS011;23184;51.902;12.836;2023-06-22T01:29:17;17.73;;;14.63;;
37299;SDS011;23184;51.902;12.836;2023-06-22T01:31:43;14.05;;;12.55;;
37299;SDS011;23184;51.902;12.836;2023-06-22T01:34:09;15.77;;;13.93;;
37299;SDS011;23184;51.902;12.836;2023-06-22T01:36:36;20.10;;;14.18;;
37299;SDS011;23184;51.902;12.836;2023-06-22T01:39:03;15.52;;;13.48;;
37299;SDS011;23184;51.902;12.836;2023-06-22T01:41:34;16.63;;;14.20;;
37299;SDS011;23184;51.902;12.836;2023-06-22T01:44:02;15.82;;;13.80;;
37299;SDS011;23184;51.902;12.836;2023-06-22T01:46:32;14.93;;;13.35;;
37299;SDS011;23184;51.902;12.836;2023-06-22T01:48:59;17.20;;;13.63;;
37299;SDS011;23184;51.902;12.836;2023-06-22T01:51:25;19.98;;;13.55;;
37299;SDS011;23184;51.902;12.836;2023-06-22T01:53:51;19.67;;;14.38;;
37299;SDS011;23184;51.902;12.836;2023-06-22T01:56:17;23.63;;;14.65;;
37299;SDS011;23184;51.902;12.836;2023-06-22T01:58:48;18.83;;;13.18;;
37299;SDS011;23184;51.902;12.836;2023-06-22T02:01:23;23.45;;;13.77;;
37299;SDS011;23184;51.902;12.836;2023-06-22T02:06:38;15.93;;;13.63;;
37299;SDS011;23184;51.902;12.836;2023-06-22T02:09:09;16.77;;;14.10;;
37299;SDS011;23184;51.902;12.836;2023-06-22T02:11:40;17.73;;;13.90;;
37299;SDS011;23184;51.902;12.836;2023-06-22T02:14:08;16.83;;;14.60;;
37299;SDS011;23184;51.902;12.836;2023-06-22T02:16:34;15.93;;;13.88;;
37299;SDS011;23184;51.902;12.836;2023-06-22T02:19:01;17.83;;;15.20;;
37299;SDS011;23184;51.902;12.836;2023-06-22T02:21:31;17.67;;;14.63;;
37299;SDS011;23184;51.902;12.836;2023-06-22T02:23:57;20.77;;;15.80;;
37299;SDS011;23184;51.902;12.836;2023-06-22T02:26:22;17.95;;;15.88;;
37299;SDS011;23184;51.902;12.836;2023-06-22T02:28:50;20.60;;;15.93;;
37299;SDS011;23184;51.902;12.836;2023-06-22T02:31:15;18.90;;;15.38;;
37299;SDS011;23184;51.902;12.836;2023-06-22T02:33:41;17.88;;;15.15;;
37299;SDS011;23184;51.902;12.836;2023-06-22T02:36:06;17.02;;;14.50;;
37299;SDS011;23184;51.902;12.836;2023-06-22T02:38:34;19.95;;;16.58;;
37299;SDS011;23184;51.902;12.836;2023-06-22T02:41:02;22.30;;;16.38;;
37299;SDS011;23184;51.902;12.836;2023-06-22T02:43:28;17.92;;;15.25;;
37299;SDS011;23184;51.902;12.836;2023-06-22T02:45:54;19.10;;;15.90;;
37299;SDS011;23184;51.902;12.836;2023-06-22T02:48:20;19.42;;;16.63;;
37299;SDS011;23184;51.902;12.836;2023-06-22T02:50:46;20.73;;;16.48;;
37299;SDS011;23184;51.902;12.836;2023-06-22T02:53:11;18.60;;;16.60;;
37299;SDS011;23184;51.902;12.836;2023-06-22T02:55:37;18.45;;;15.98;;
37299;SDS011;23184;51.902;12.836;2023-06-22T02:58:04;19.08;;;16.15;;
37299;SDS011;23184;51.902;12.836;2023-06-22T03:00:30;22.67;;;16.40;;
37299;SDS011;23184;51.902;12.836;2023-06-22T03:02:56;18.45;;;16.05;;
37299;SDS011;23184;51.902;12.836;2023-06-22T03:05:22;20.88;;;17.08;;
37299;SDS011;23184;51.902;12.836;2023-06-22T03:07:48;18.48;;;16.40;;
37299;SDS011;23184;51.902;12.836;2023-06-22T03:10:15;22.17;;;17.55;;
37299;SDS011;23184;51.902;12.836;2023-06-22T03:12:41;20.40;;;17.38;;
37299;SDS011;23184;51.902;12.836;2023-06-22T03:15:08;23.33;;;17.73;;
37299;SDS011;23184;51.902;12.836;2023-06-22T03:17:35;20.38;;;17.23;;
37299;SDS011;23184;51.902;12.836;2023-06-22T03:20:02;22.63;;;17.50;;
37299;SDS011;23184;51.902;12.836;2023-06-22T03:22:34;20.20;;;16.48;;
37299;SDS011;23184;51.902;12.836;2023-06-22T03:25:00;27.33;;;18.10;;
37299;SDS011;23184;51.902;12.836;2023-06-22T03:27:26;21.10;;;17.75;;
37299;SDS011;23184;51.902;12.836;2023-06-22T03:29:51;24.85;;;18.17;;
37299;SDS011;23184;51.902;12.836;2023-06-22T03:32:17;22.15;;;18.13;;
37299;SDS011;23184;51.902;12.836;2023-06-22T03:34:42;20.45;;;17.50;;
37299;SDS011;23184;51.902;12.836;2023-06-22T03:37:11;21.83;;;17.80;;
37299;SDS011;23184;51.902;12.836;2023-06-22T03:39:38;24.73;;;19.08;;
37299;SDS011;23184;51.902;12.836;2023-06-22T03:42:04;22.92;;;17.90;;
37299;SDS011;23184;51.902;12.836;2023-06-22T03:44:30;20.35;;;17.88;;
37299;SDS011;23184;51.902;12.836;2023-06-22T03:46:55;19.88;;;17.20;;
37299;SDS011;23184;51.902;12.836;2023-06-22T03:49:21;20.30;;;17.35;;
37299;SDS011;23184;51.902;12.836;2023-06-22T03:51:46;22.58;;;18.20;;
37299;SDS011;23184;51.902;12.836;2023-06-22T03:54:12;22.80;;;17.88;;
37299;SDS011;23184;51.902;12.836;2023-06-22T03:56:37;25.45;;;17.98;;
37299;SDS011;23184;51.902;12.836;2023-06-22T03:59:03;19.65;;;17.40;;
37299;SDS011;23184;51.902;12.836;2023-06-22T04:01:28;23.67;;;18.40;;
37299;SDS011;23184;51.902;12.836;2023-06-22T04:03:54;24.58;;;17.33;;
37299;SDS011;23184;51.902;12.836;2023-06-22T04:06:19;24.02;;;18.75;;
37299;SDS011;23184;51.902;12.836;2023-06-22T04:08:45;20.08;;;17.92;;
37299;SDS011;23184;51.902;12.836;2023-06-22T04:11:15;23.58;;;18.60;;
37299;SDS011;23184;51.902;12.836;2023-06-22T04:13:44;22.13;;;19.40;;
37299;SDS011;23184;51.902;12.836;2023-06-22T04:16:09;21.85;;;19.20;;
37299;SDS011;23184;51.902;12.836;2023-06-22T04:18:35;25.02;;;20.00;;
37299;SDS011;23184;51.902;12.836;2023-06-22T04:21:01;22.15;;;17.73;;
37299;SDS011;23184;51.902;12.836;2023-06-22T04:23:27;20.60;;;18.25;;
37299;SDS011;23184;51.902;12.836;2023-06-22T04:25:53;22.33;;;18.92;;
37299;SDS011;23184;51.902;12.836;2023-06-22T04:28:18;24.05;;;19.02;;
37299;SDS011;23184;51.902;12.836;2023-06-22T04:30:44;24.73;;;18.42;;
37299;SDS011;23184;51.902;12.836;2023-06-22T04:33:15;20.13;;;17.92;;
37299;SDS011;23184;51.902;12.836;2023-06-22T04:35:41;20.88;;;18.58;;
37299;SDS011;23184;51.902;12.836;2023-06-22T04:38:11;21.90;;;18.58;;
37299;SDS011;23184;51.902;12.836;2023-06-22T04:40:38;23.23;;;18.20;;
37299;SDS011;23184;51.902;12.836;2023-06-22T04:43:06;21.42;;;19.13;;
37299;SDS011;23184;51.902;12.836;2023-06-22T04:45:32;21.95;;;19.65;;
37299;SDS011;23184;51.902;12.836;2023-06-22T04:47:58;23.08;;;19.38;;
37299;SDS011;23184;51.902;12.836;2023-06-22T04:50:24;22.38;;;18.77;;
37299;SDS011;23184;51.902;12.836;2023-06-22T04:52:50;21.45;;;18.75;;
37299;SDS011;23184;51.902;12.836;2023-06-22T04:55:16;22.25;;;18.85;;
37299;SDS011;23184;51.902;12.836;2023-06-22T04:57:45;20.75;;;18.30;;
37299;SDS011;23184;51.902;12.836;2023-06-22T05:00:14;22.25;;;18.85;;
37299;SDS011;23184;51.902;12.836;2023-06-22T05:02:42;19.10;;;17.10;;
37299;SDS011;23184;51.902;12.836;2023-06-22T05:05:08;21.75;;;17.10;;
37299;SDS011;23184;51.902;12.836;2023-06-22T05:07:38;23.00;;;18.55;;
37299;SDS011;23184;51.902;12.836;2023-06-22T05:10:12;20.65;;;18.23;;
37299;SDS011;23184;51.902;12.836;2023-06-22T05:12:38;19.75;;;17.25;;
37299;SDS011;23184;51.902;12.836;2023-06-22T05:15:05;23.45;;;19.27;;
37299;SDS011;23184;51.902;12.836;2023-06-22T05:17:32;22.80;;;18.42;;
37299;SDS011;23184;51.902;12.836;2023-06-22T05:19:57;22.42;;;19.25;;
37299;SDS011;23184;51.902;12.836;2023-06-22T05:22:23;20.48;;;18.05;;
37299;SDS011;23184;51.902;12.836;2023-06-22T05:24:48;22.92;;;19.27;;
37299;SDS011;23184;51.902;12.836;2023-06-22T05:27:14;22.55;;;19.00;;
37299;SDS011;23184;51.902;12.836;2023-06-22T05:29:39;21.38;;;19.15;;
37299;SDS011;23184;51.902;12.836;2023-06-22T05:32:05;20.25;;;18.15;;
37299;SDS011;23184;51.902;12.836;2023-06-22T05:34:31;21.15;;;18.60;;
37299;SDS011;23184;51.902;12.836;2023-06-22T05:36:57;19.77;;;17.70;;
37299;SDS011;23184;51.902;12.836;2023-06-22T05:39:26;21.02;;;18.75;;
37299;SDS011;23184;51.902;12.836;2023-06-22T05:41:51;23.13;;;18.75;;
37299;SDS011;23184;51.902;12.836;2023-06-22T05:44:17;20.25;;;18.25;;
37299;SDS011;23184;51.902;12.836;2023-06-22T05:46:43;23.13;;;19.13;;
37299;SDS011;23184;51.902;12.836;2023-06-22T05:49:11;24.10;;;18.73;;
37299;SDS011;23184;51.902;12.836;2023-06-22T05:51:37;21.27;;;19.00;;
37299;SDS011;23184;51.902;12.836;2023-06-22T05:54:03;23.02;;;19.98;;
37299;SDS011;23184;51.902;12.836;2023-06-22T05:56:29;19.77;;;17.73;;
37299;SDS011;23184;51.902;12.836;2023-06-22T05:58:54;21.35;;;19.15;;
37299;SDS011;23184;51.902;12.836;2023-06-22T06:01:20;20.63;;;17.95;;
37299;SDS011;23184;51.902;12.836;2023-06-22T06:03:46;20.23;;;17.30;;
37299;SDS011;23184;51.902;12.836;2023-06-22T06:06:11;20.63;;;17.80;;
37299;SDS011;23184;51.902;12.836;2023-06-22T06:08:38;20.60;;;18.33;;
37299;SDS011;23184;51.902;12.836;2023-06-22T06:11:04;19.63;;;17.65;;
37299;SDS011;23184;51.902;12.836;2023-06-22T06:13:29;20.25;;;17.67;;
37299;SDS011;23184;51.902;12.836;2023-06-22T06:15:55;20.17;;;16.70;;
37299;SDS011;23184;51.902;12.836;2023-06-22T06:18:22;18.73;;;16.60;;
37299;SDS011;23184;51.902;12.836;2023-06-22T06:20:47;17.90;;;16.02;;
37299;SDS011;23184;51.902;12.836;2023-06-22T06:23:13;21.17;;;18.33;;
37299;SDS011;23184;51.902;12.836;2023-06-22T06:25:38;19.63;;;16.13;;
37299;SDS011;23184;51.902;12.836;2023-06-22T06:28:04;17.80;;;15.90;;
37299;SDS011;23184;51.902;12.836;2023-06-22T06:30:29;19.88;;;16.23;;
37299;SDS011;23184;51.902;12.836;2023-06-22T06:32:55;18.83;;;16.83;;
37299;SDS011;23184;51.902;12.836;2023-06-22T06:35:21;20.27;;;16.33;;
37299;SDS011;23184;51.902;12.836;2023-06-22T06:37:47;17.17;;;15.40;;
37299;SDS011;23184;51.902;12.836;2023-06-22T06:40:14;17.50;;;15.70;;
37299;SDS011;23184;51.902;12.836;2023-06-22T06:42:41;21.02;;;15.98;;
37299;SDS011;23184;51.902;12.836;2023-06-22T06:45:11;17.88;;;14.07;;
37299;SDS011;23184;51.902;12.836;2023-06-22T06:47:38;22.52;;;14.95;;
37299;SDS011;23184;51.902;12.836;2023-06-22T06:50:04;16.08;;;14.38;;
37299;SDS011;23184;51.902;12.836;2023-06-22T06:52:31;15.38;;;13.88;;
37299;SDS011;23184;51.902;12.836;2023-06-22T06:54:57;18.08;;;15.45;;
37299;SDS011;23184;51.902;12.836;2023-06-22T06:57:22;17.65;;;13.48;;
37299;SDS011;23184;51.902;12.836;2023-06-22T06:59:48;16.38;;;14.20;;
37299;SDS011;23184;51.902;12.836;2023-06-22T07:02:14;13.38;;;12.00;;
37299;SDS011;23184;51.902;12.836;2023-06-22T07:04:41;13.90;;;12.10;;
37299;SDS011;23184;51.902;12.836;2023-06-22T07:07:06;13.70;;;12.20;;
37299;SDS011;23184;51.902;12.836;2023-06-22T07:09:32;13.18;;;11.85;;
37299;SDS011;23184;51.902;12.836;2023-06-22T07:11:57;13.68;;;12.23;;
37299;SDS011;23184;51.902;12.836;2023-06-22T07:14:23;13.27;;;11.85;;
37299;SDS011;23184;51.902;12.836;2023-06-22T07:16:48;14.73;;;11.88;;
37299;SDS011;23184;51.902;12.836;2023-06-22T07:19:14;14.52;;;11.75;;
37299;SDS011;23184;51.902;12.836;2023-06-22T07:21:39;14.07;;;12.10;;
37299;SDS011;23184;51.902;12.836;2023-06-22T07:24:05;14.15;;;11.73;;
37299;SDS011;23184;51.902;12.836;2023-06-22T07:26:32;14.25;;;11.15;;
37299;SDS011;23184;51.902;12.836;2023-06-22T07:28:58;13.10;;;11.43;;
37299;SDS011;23184;51.902;12.836;2023-06-22T07:31:26;13.95;;;10.55;;
37299;SDS011;23184;51.902;12.836;2023-06-22T07:33:52;12.40;;;11.10;;
37299;SDS011;23184;51.902;12.836;2023-06-22T07:36:18;13.23;;;11.25;;
37299;SDS011;23184;51.902;12.836;2023-06-22T07:38:43;11.80;;;10.48;;
37299;SDS011;23184;51.902;12.836;2023-06-22T07:41:09;11.68;;;10.43;;
37299;SDS011;23184;51.902;12.836;2023-06-22T07:43:35;12.23;;;10.38;;
37299;SDS011;23184;51.902;12.836;2023-06-22T07:46:02;11.18;;;10.07;;
37299;SDS011;23184;51.902;12.836;2023-06-22T07:48:28;12.48;;;11.10;;
37299;SDS011;23184;51.902;12.836;2023-06-22T07:50:54;12.00;;;10.45;;
37299;SDS011;23184;51.902;12.836;2023-06-22T07:53:20;13.48;;;11.32;;
37299;SDS011;23184;51.902;12.836;2023-06-22T07:55:46;13.60;;;11.38;;
37299;SDS011;23184;51.902;12.836;2023-06-22T07:58:12;12.02;;;10.82;;
37299;SDS011;23184;51.902;12.836;2023-06-22T08:00:38;12.95;;;11.02;;
37299;SDS011;23184;51.902;12.836;2023-06-22T08:03:03;11.75;;;10.43;;
37299;SDS011;23184;51.902;12.836;2023-06-22T08:05:30;13.07;;;11.40;;
37299;SDS011;23184;51.902;12.836;2023-06-22T08:07:56;11.20;;;10.10;;
37299;SDS011;23184;51.902;12.836;2023-06-22T08:10:22;11.77;;;10.57;;
37299;SDS011;23184;51.902;12.836;2023-06-22T08:12:47;11.85;;;10.07;;
37299;SDS011;23184;51.902;12.836;2023-06-22T08:15:13;11.07;;;9.88;;
37299;SDS011;23184;51.902;12.836;2023-06-22T08:17:39;14.02;;;9.85;;
37299;SDS011;23184;51.902;12.836;2023-06-22T08:20:05;12.63;;;10.25;;
37299;SDS011;23184;51.902;12.836;2023-06-22T08:22:36;14.57;;;10.80;;
37299;SDS011;23184;51.902;12.836;2023-06-22T08:25:02;11.65;;;10.50;;
37299;SDS011;23184;51.902;12.836;2023-06-22T08:27:29;11.85;;;10.60;;
37299;SDS011;23184;51.902;12.836;2023-06-22T08:29:56;11.63;;;10.02;;
37299;SDS011;23184;51.902;12.836;2023-06-22T08:32:24;12.88;;;10.95;;
37299;SDS011;23184;51.902;12.836;2023-06-22T08:34:51;11.73;;;10.63;;
37299;SDS011;23184;51.902;12.836;2023-06-22T08:37:17;12.90;;;10.57;;
37299;SDS011;23184;51.902;12.836;2023-06-22T08:39:43;11.80;;;9.85;;
37299;SDS011;23184;51.902;12.836;2023-06-22T08:42:08;26.23;;;10.55;;
37299;SDS011;23184;51.902;12.836;2023-06-22T08:44:34;12.10;;;10.73;;
37299;SDS011;23184;51.902;12.836;2023-06-22T08:46:59;12.52;;;10.38;;
37299;SDS011;23184;51.902;12.836;2023-06-22T08:49:24;12.05;;;9.82;;
37299;SDS011;23184;51.902;12.836;2023-06-22T08:51:50;10.65;;;9.55;;
37299;SDS011;23184;51.902;12.836;2023-06-22T08:54:18;13.25;;;9.70;;
37299;SDS011;23184;51.902;12.836;2023-06-22T08:56:43;14.80;;;10.20;;
37299;SDS011;23184;51.902;12.836;2023-06-22T08:59:09;12.38;;;9.38;;
37299;SDS011;23184;51.902;12.836;2023-06-22T09:01:34;14.60;;;9.55;;
37299;SDS011;23184;51.902;12.836;2023-06-22T09:04:00;11.43;;;10.18;;
37299;SDS011;23184;51.902;12.836;2023-06-22T09:06:25;10.05;;;9.05;;
37299;SDS011;23184;51.902;12.836;2023-06-22T09:08:51;12.35;;;9.30;;
37299;SDS011;23184;51.902;12.836;2023-06-22T09:11:16;11.32;;;9.13;;
37299;SDS011;23184;51.902;12.836;2023-06-22T09:13:42;10.02;;;8.98;;
37299;SDS011;23184;51.902;12.836;2023-06-22T09:16:08;9.35;;;8.43;;
37299;SDS011;23184;51.902;12.836;2023-06-22T09:18:33;11.68;;;8.27;;
37299;SDS011;23184;51.902;12.836;2023-06-22T09:20:59;13.43;;;9.43;;
37299;SDS011;23184;51.902;12.836;2023-06-22T09:23:25;9.27;;;8.00;;
37299;SDS011;23184;51.902;12.836;2023-06-22T09:25:50;10.32;;;9.25;;
37299;SDS011;23184;51.902;12.836;2023-06-22T09:28:15;12.10;;;8.40;;
37299;SDS011;23184;51.902;12.836;2023-06-22T09:30:42;9.40;;;8.43;;
37299;SDS011;23184;51.902;12.836;2023-06-22T09:33:09;8.77;;;7.88;;
37299;SDS011;23184;51.902;12.836;2023-06-22T09:35:35;8.68;;;7.88;;
37299;SDS011;23184;51.902;12.836;2023-06-22T09:38:00;9.70;;;8.77;;
37299;SDS011;23184;51.902;12.836;2023-06-22T09:40:26;8.95;;;8.10;;
37299;SDS011;23184;51.902;12.836;2023-06-22T09:42:51;10.30;;;9.30;;
37299;SDS011;23184;51.902;12.836;2023-06-22T09:45:17;9.40;;;8.40;;
37299;SDS011;23184;51.902;12.836;2023-06-22T09:47:42;9.15;;;8.18;;
37299;SDS011;23184;51.902;12.836;2023-06-22T09:50:08;9.18;;;8.20;;
37299;SDS011;23184;51.902;12.836;2023-06-22T09:52:33;9.55;;;8.02;;
37299;SDS011;23184;51.902;12.836;2023-06-22T09:54:59;10.75;;;8.55;;
37299;SDS011;23184;51.902;12.836;2023-06-22T09:57:24;9.63;;;8.65;;
37299;SDS011;23184;51.902;12.836;2023-06-22T09:59:50;9.48;;;8.48;;
37299;SDS011;23184;51.902;12.836;2023-06-22T10:02:15;11.63;;;9.70;;
37299;SDS011;23184;51.902;12.836;2023-06-22T10:04:42;11.18;;;8.65;;
37299;SDS011;23184;51.902;12.836;2023-06-22T10:07:07;9.02;;;8.13;;
37299;SDS011;23184;51.902;12.836;2023-06-22T10:09:33;9.18;;;8.25;;
37299;SDS011;23184;51.902;12.836;2023-06-22T10:11:58;9.20;;;8.32;;
37299;SDS011;23184;51.902;12.836;2023-06-22T10:14:24;10.63;;;8.75;;
37299;SDS011;23184;51.902;12.836;2023-06-22T10:16:50;9.00;;;8.20;;
37299;SDS011;23184;51.902;12.836;2023-06-22T10:19:17;12.65;;;8.95;;
37299;SDS011;23184;51.902;12.836;2023-06-22T10:21:42;11.00;;;8.32;;
37299;SDS011;23184;51.902;12.836;2023-06-22T10:24:08;12.30;;;8.52;;
37299;SDS011;23184;51.902;12.836;2023-06-22T10:26:34;9.98;;;7.93;;
37299;SDS011;23184;51.902;12.836;2023-06-22T10:29:00;9.15;;;8.32;;
37299;SDS011;23184;51.902;12.836;2023-06-22T10:31:27;8.52;;;7.72;;
37299;SDS011;23184;51.902;12.836;2023-06-22T10:33:53;10.15;;;7.85;;
37299;SDS011;23184;51.902;12.836;2023-06-22T10:36:19;8.77;;;7.93;;
37299;SDS011;23184;51.902;12.836;2023-06-22T10:38:44;9.38;;;7.90;;
37299;SDS011;23184;51.902;12.836;2023-06-22T10:41:11;8.65;;;7.68;;
37299;SDS011;23184;51.902;12.836;2023-06-22T10:43:37;10.10;;;7.43;;
37299;SDS011;23184;51.902;12.836;2023-06-22T10:46:03;11.57;;;7.75;;
37299;SDS011;23184;51.902;12.836;2023-06-22T10:48:28;8.20;;;7.43;;
37299;SDS011;23184;51.902;12.836;2023-06-22T10:50:54;8.27;;;7.32;;
37299;SDS011;23184;51.902;12.836;2023-06-22T10:53:19;23.52;;;8.20;;
37299;SDS011;23184;51.902;12.836;2023-06-22T10:55:45;8.88;;;7.97;;
37299;SDS011;23184;51.902;12.836;2023-06-22T10:58:11;8.55;;;7.75;;
37299;SDS011;23184;51.902;12.836;2023-06-22T11:00:36;9.88;;;6.85;;
37299;SDS011;23184;51.902;12.836;2023-06-22T11:03:02;9.65;;;7.30;;
37299;SDS011;23184;51.902;12.836;2023-06-22T11:05:27;10.73;;;7.05;;
37299;SDS011;23184;51.902;12.836;2023-06-22T11:07:53;11.65;;;6.88;;
37299;SDS011;23184;51.902;12.836;2023-06-22T11:10:18;9.90;;;7.90;;
37299;SDS011;23184;51.902;12.836;2023-06-22T11:12:44;8.52;;;7.50;;
37299;SDS011;23184;51.902;12.836;2023-06-22T11:15:09;7.75;;;7.05;;
37299;SDS011;23184;51.902;12.836;2023-06-22T11:17:35;8.85;;;7.25;;
37299;SDS011;23184;51.902;12.836;2023-06-22T11:20:00;9.63;;;8.25;;
37299;SDS011;23184;51.902;12.836;2023-06-22T11:22:26;8.80;;;7.47;;
37299;SDS011;23184;51.902;12.836;2023-06-22T11:24:52;7.95;;;7.15;;
37299;SDS011;23184;51.902;12.836;2023-06-22T11:27:17;14.45;;;6.88;;
37299;SDS011;23184;51.902;12.836;2023-06-22T11:29:43;8.38;;;7.28;;
37299;SDS011;23184;51.902;12.836;2023-06-22T11:32:08;6.95;;;6.22;;
37299;SDS011;23184;51.902;12.836;2023-06-22T11:34:34;7.93;;;6.50;;
37299;SDS011;23184;51.902;12.836;2023-06-22T11:37:00;9.73;;;7.32;;
37299;SDS011;23184;51.902;12.836;2023-06-22T11:39:25;8.60;;;7.35;;
37299;SDS011;23184;51.902;12.836;2023-06-22T11:41:51;6.93;;;6.32;;
37299;SDS011;23184;51.902;12.836;2023-06-22T11:44:16;8.05;;;7.25;;
37299;SDS011;23184;51.902;12.836;2023-06-22T11:46:42;7.93;;;7.18;;
37299;SDS011;23184;51.902;12.836;2023-06-22T11:49:08;9.73;;;7.47;;
37299;SDS011;23184;51.902;12.836;2023-06-22T11:51:33;8.40;;;7.15;;
37299;SDS011;23184;51.902;12.836;2023-06-22T11:53:59;8.95;;;7.10;;
37299;SDS011;23184;51.902;12.836;2023-06-22T11:56:24;8.85;;;6.28;;
37299;SDS011;23184;51.902;12.836;2023-06-22T11:58:50;8.73;;;6.97;;
37299;SDS011;23184;51.902;12.836;2023-06-22T12:01:15;7.72;;;6.93;;
37299;SDS011;23184;51.902;12.836;2023-06-22T12:03:41;7.75;;;6.95;;
37299;SDS011;23184;51.902;12.836;2023-06-22T12:06:09;7.65;;;6.85;;
37299;SDS011;23184;51.902;12.836;2023-06-22T12:08:34;7.97;;;7.18;;
37299;SDS011;23184;51.902;12.836;2023-06-22T12:11:00;7.22;;;6.63;;
37299;SDS011;23184;51.902;12.836;2023-06-22T12:13:25;11.07;;;6.82;;
37299;SDS011;23184;51.902;12.836;2023-06-22T12:15:51;7.90;;;6.78;;
37299;SDS011;23184;51.902;12.836;2023-06-22T12:18:17;10.82;;;8.20;;
37299;SDS011;23184;51.902;12.836;2023-06-22T12:20:45;7.03;;;6.32;;
37299;SDS011;23184;51.902;12.836;2023-06-22T12:23:11;8.93;;;6.82;;
37299;SDS011;23184;51.902;12.836;2023-06-22T12:25:36;9.73;;;6.88;;
37299;SDS011;23184;51.902;12.836;2023-06-22T12:28:02;8.02;;;6.43;;
37299;SDS011;23184;51.902;12.836;2023-06-22T12:30:32;8.90;;;6.60;;
37299;SDS011;23184;51.902;12.836;2023-06-22T12:32:57;8.35;;;6.65;;
37299;SDS011;23184;51.902;12.836;2023-06-22T12:35:23;7.18;;;6.50;;
37299;SDS011;23184;51.902;12.836;2023-06-22T12:37:49;8.25;;;6.85;;
37299;SDS011;23184;51.902;12.836;2023-06-22T12:40:14;8.95;;;7.80;;
37299;SDS011;23184;51.902;12.836;2023-06-22T12:42:40;9.10;;;7.40;;
37299;SDS011;23184;51.902;12.836;2023-06-22T12:45:06;7.60;;;6.90;;
37299;SDS011;23184;51.902;12.836;2023-06-22T12:47:32;11.80;;;7.15;;
37299;SDS011;23184;51.902;12.836;2023-06-22T12:49:58;6.57;;;5.97;;
37299;SDS011;23184;51.902;12.836;2023-06-22T12:52:23;8.80;;;7.00;;
37299;SDS011;23184;51.902;12.836;2023-06-22T12:54:49;8.57;;;7.57;;
37299;SDS011;23184;51.902;12.836;2023-06-22T12:57:15;15.30;;;7.85;;
37299;SDS011;23184;51.902;12.836;2023-06-22T12:59:40;8.10;;;7.10;;
37299;SDS011;23184;51.902;12.836;2023-06-22T13:02:06;8.48;;;7.63;;
37299;SDS011;23184;51.902;12.836;2023-06-22T13:04:31;7.30;;;6.55;;
37299;SDS011;23184;51.902;12.836;2023-06-22T13:06:56;8.32;;;7.38;;
37299;SDS011;23184;51.902;12.836;2023-06-22T13:09:22;9.90;;;7.65;;
37299;SDS011;23184;51.902;12.836;2023-06-22T13:11:48;8.07;;;6.97;;
37299;SDS011;23184;51.902;12.836;2023-06-22T13:14:13;8.52;;;7.68;;
37299;SDS011;23184;51.902;12.836;2023-06-22T13:16:41;7.45;;;6.68;;
37299;SDS011;23184;51.902;12.836;2023-06-22T13:19:06;10.15;;;6.85;;
37299;SDS011;23184;51.902;12.836;2023-06-22T13:21:32;7.45;;;6.50;;
37299;SDS011;23184;51.902;12.836;2023-06-22T13:23:58;7.25;;;6.55;;
37299;SDS011;23184;51.902;12.836;2023-06-22T13:26:24;9.70;;;6.97;;
37299;SDS011;23184;51.902;12.836;2023-06-22T13:28:50;8.07;;;6.53;;
37299;SDS011;23184;51.902;12.836;2023-06-22T13:31:15;8.25;;;6.93;;
37299;SDS011;23184;51.902;12.836;2023-06-22T13:33:41;7.60;;;6.88;;
37299;SDS011;23184;51.902;12.836;2023-06-22T13:36:06;7.03;;;6.32;;
37299;SDS011;23184;51.902;12.836;2023-06-22T13:38:32;9.35;;;6.82;;
37299;SDS011;23184;51.902;12.836;2023-06-22T13:41:03;7.65;;;6.85;;
37299;SDS011;23184;51.902;12.836;2023-06-22T13:43:29;10.35;;;7.10;;
37299;SDS011;23184;51.902;12.836;2023-06-22T13:45:54;12.63;;;6.93;;
37299;SDS011;23184;51.902;12.836;2023-06-22T13:48:20;10.68;;;7.53;;
37299;SDS011;23184;51.902;12.836;2023-06-22T13:50:45;7.80;;;6.70;;
37299;SDS011;23184;51.902;12.836;2023-06-22T13:53:11;7.47;;;6.78;;
37299;SDS011;23184;51.902;12.836;2023-06-22T13:55:36;7.32;;;6.43;;
37299;SDS011;23184;51.902;12.836;2023-06-22T13:58:02;8.05;;;6.22;;
37299;SDS011;23184;51.902;12.836;2023-06-22T14:00:27;7.35;;;6.30;;
37299;SDS011;23184;51.902;12.836;2023-06-22T14:02:53;7.13;;;6.53;;
37299;SDS011;23184;51.902;12.836;2023-06-22T14:05:19;18.95;;;7.35;;
37299;SDS011;23184;51.902;12.836;2023-06-22T14:07:45;8.82;;;6.65;;
37299;SDS011;23184;51.902;12.836;2023-06-22T14:10:10;8.60;;;6.47;;
37299;SDS011;23184;51.902;12.836;2023-06-22T14:12:36;7.70;;;6.97;;
37299;SDS011;23184;51.902;12.836;2023-06-22T14:15:01;9.57;;;7.40;;
37299;SDS011;23184;51.902;12.836;2023-06-22T14:17:27;8.68;;;7.05;;
37299;SDS011;23184;51.902;12.836;2023-06-22T14:19:52;9.85;;;7.10;;